createdAt,value
2024-04-09T00:00:15.681Z,24.70
2024-04-09T00:02:43.547Z,25.13
2024-04-09T00:05:12.504Z,24.35
2024-04-09T00:07:40.345Z,20.90
2024-04-09T00:10:08.506Z,17.25
2024-04-09T00:12:37.608Z,19.08
2024-04-09T00:15:09.754Z,21.20
2024-04-09T00:17:46.772Z,19.10
2024-04-09T00:20:19.672Z,13.85
2024-04-09T00:22:47.893Z,17.52
2024-04-09T00:25:20.357Z,22.88
2024-04-09T00:27:48.794Z,17.38
2024-04-09T00:30:19.624Z,19.02
2024-04-09T00:32:59.193Z,18.65
2024-04-09T00:35:27.778Z,16.75
2024-04-09T00:37:56.364Z,20.33
2024-04-09T00:40:26.201Z,17.52
2024-04-09T00:42:59.142Z,17.73
2024-04-09T00:45:27.149Z,19.17
2024-04-09T00:47:55.992Z,17.55
2024-04-09T00:50:25.664Z,18.98
2024-04-09T00:52:56.740Z,18.33
2024-04-09T00:55:27.976Z,11.57
2024-04-09T00:57:58.131Z,17.25
2024-04-09T01:00:26.003Z,15.15
2024-04-09T01:02:55.415Z,13.45
2024-04-09T01:05:23.511Z,15.35
2024-04-09T01:07:51.388Z,16.00
2024-04-09T01:10:19.226Z,20.05
2024-04-09T01:12:47.034Z,16.73
2024-04-09T01:15:14.901Z,16.30
2024-04-09T01:17:42.904Z,13.60
2024-04-09T01:20:14.632Z,15.75
2024-04-09T01:22:42.892Z,23.88
2024-04-09T01:25:11.973Z,15.45
2024-04-09T01:27:40.370Z,21.17
2024-04-09T01:30:10.061Z,21.95
2024-04-09T01:32:46.271Z,16.88
2024-04-09T01:35:15.836Z,23.65
2024-04-09T01:37:44.483Z,20.70
2024-04-09T01:40:14.097Z,24.10
2024-04-09T01:42:41.924Z,23.52
2024-04-09T01:45:10.320Z,23.88
2024-04-09T01:47:38.321Z,24.15
2024-04-09T01:50:07.095Z,21.70
2024-04-09T01:52:36.585Z,27.15
2024-04-09T01:55:06.987Z,21.35
2024-04-09T01:57:34.901Z,21.48
2024-04-09T02:00:13.528Z,18.40
2024-04-09T02:02:45.215Z,17.23
2024-04-09T02:05:14.340Z,19.60
2024-04-09T02:07:42.832Z,19.88
2024-04-09T02:10:13.727Z,20.73
2024-04-09T02:12:42.390Z,16.88
2024-04-09T02:15:14.639Z,14.75
2024-04-09T02:17:42.579Z,15.35
2024-04-09T02:20:11.978Z,17.55
2024-04-09T02:22:40.282Z,17.25
2024-04-09T02:25:08.986Z,15.07
2024-04-09T02:27:37.210Z,16.17
2024-04-09T02:30:05.466Z,13.30
2024-04-09T02:32:33.526Z,17.17
2024-04-09T02:35:02.852Z,20.77
2024-04-09T02:37:30.768Z,27.20
2024-04-09T02:40:00.383Z,22.50
2024-04-09T02:42:29.059Z,23.02
2024-04-09T02:44:57.015Z,29.00
2024-04-09T02:47:25.325Z,27.88
2024-04-09T02:49:54.244Z,31.70
2024-04-09T02:52:22.387Z,31.35
2024-04-09T02:54:50.199Z,28.83
2024-04-09T02:57:18.180Z,32.08
2024-04-09T02:59:46.298Z,34.45
2024-04-09T03:02:14.259Z,25.73
2024-04-09T03:07:11.226Z,28.25
2024-04-09T03:09:39.938Z,24.75
2024-04-09T03:12:08.920Z,28.75
2024-04-09T03:14:36.855Z,33.30
2024-04-09T03:17:07.618Z,32.42
2024-04-09T03:19:35.414Z,36.78
2024-04-09T03:22:03.254Z,29.10
2024-04-09T03:24:31.335Z,27.70
2024-04-09T03:26:59.239Z,32.53
2024-04-09T03:29:27.276Z,32.17
2024-04-09T03:31:55.131Z,27.23
2024-04-09T03:34:23.089Z,29.95
2024-04-09T03:36:52.577Z,30.65
2024-04-09T03:39:21.094Z,27.15
2024-04-09T03:41:48.882Z,24.67
2024-04-09T03:44:16.761Z,30.40
2024-04-09T03:46:44.812Z,26.50
2024-04-09T03:49:12.798Z,26.02
2024-04-09T03:51:40.874Z,21.27
2024-04-09T03:54:10.884Z,27.20
2024-04-09T03:56:38.905Z,21.08
2024-04-09T03:59:08.648Z,22.75
2024-04-09T04:01:36.581Z,22.58
2024-04-09T04:04:04.470Z,26.60
2024-04-09T04:06:32.445Z,24.50
2024-04-09T04:09:00.407Z,32.58
2024-04-09T04:11:32.434Z,29.95
2024-04-09T04:14:00.310Z,25.20
2024-04-09T04:16:28.163Z,21.50
2024-04-09T04:18:56.004Z,20.02
2024-04-09T04:21:25.510Z,14.55
2024-04-09T04:23:56.204Z,19.85
2024-04-09T04:26:26.059Z,16.02
2024-04-09T04:28:55.421Z,26.35
2024-04-09T04:31:27.223Z,23.88
2024-04-09T04:33:56.063Z,22.02
2024-04-09T04:36:24.143Z,17.75
2024-04-09T04:38:52.216Z,12.10
2024-04-09T04:41:20.122Z,17.35
2024-04-09T04:43:47.992Z,12.48
2024-04-09T04:46:15.971Z,13.32
2024-04-09T04:48:44.990Z,13.80
2024-04-09T04:51:13.302Z,11.43
2024-04-09T04:53:41.539Z,19.88
2024-04-09T04:56:10.216Z,12.88
2024-04-09T04:58:38.104Z,21.65
2024-04-09T05:01:06.639Z,21.40
2024-04-09T05:03:34.519Z,16.83
2024-04-09T05:06:09.386Z,17.98
2024-04-09T05:08:37.294Z,21.15
2024-04-09T05:11:10.077Z,20.55
2024-04-09T05:13:38.043Z,16.00
2024-04-09T05:16:06.183Z,12.32
2024-04-09T05:18:34.317Z,12.20
2024-04-09T05:21:02.291Z,9.95
2024-04-09T05:23:30.203Z,7.82
2024-04-09T05:25:58.174Z,12.15
2024-04-09T05:28:28.834Z,11.23
2024-04-09T05:30:57.359Z,10.63
2024-04-09T05:33:25.290Z,10.98
2024-04-09T05:35:53.792Z,9.73
2024-04-09T05:38:21.843Z,11.63
2024-04-09T05:40:57.128Z,7.55
2024-04-09T05:43:25.163Z,15.55
2024-04-09T05:45:52.994Z,8.88
2024-04-09T05:48:21.328Z,15.20
2024-04-09T05:50:49.624Z,13.88
2024-04-09T05:53:18.362Z,11.77
2024-04-09T05:55:56.478Z,12.73
2024-04-09T05:58:24.410Z,9.57
2024-04-09T06:00:55.204Z,13.57
2024-04-09T06:03:23.361Z,11.40
2024-04-09T06:05:52.917Z,10.93
2024-04-09T06:08:20.714Z,9.07
2024-04-09T06:10:48.642Z,15.18
2024-04-09T06:13:16.761Z,12.20
2024-04-09T06:15:45.770Z,13.23
2024-04-09T06:18:18.127Z,9.52
2024-04-09T06:20:47.788Z,9.75
2024-04-09T06:23:15.973Z,13.63
2024-04-09T06:25:43.852Z,11.40
2024-04-09T06:28:11.714Z,8.00
2024-04-09T06:30:40.579Z,11.75
2024-04-09T06:33:09.966Z,13.43
2024-04-09T06:35:40.160Z,8.35
2024-04-09T06:38:08.596Z,10.45
2024-04-09T06:40:37.845Z,8.45
2024-04-09T06:43:06.870Z,10.10
2024-04-09T06:45:34.729Z,10.35
2024-04-09T06:48:03.157Z,13.27
2024-04-09T06:50:31.143Z,11.50
2024-04-09T06:52:59.366Z,7.45
2024-04-09T06:55:27.217Z,9.38
2024-04-09T06:57:55.064Z,10.60
2024-04-09T07:00:23.247Z,17.90
2024-04-09T07:02:51.265Z,18.83
2024-04-09T07:05:19.120Z,11.35
2024-04-09T07:07:47.239Z,12.65
2024-04-09T07:10:15.363Z,12.30
2024-04-09T07:12:43.224Z,14.45
2024-04-09T07:15:12.506Z,18.88
2024-04-09T07:17:40.490Z,16.60
2024-04-09T07:20:10.222Z,13.65
2024-04-09T07:22:38.119Z,16.67
2024-04-09T07:25:06.211Z,15.43
2024-04-09T07:27:36.281Z,14.35
2024-04-09T07:30:05.083Z,19.90
2024-04-09T07:32:33.059Z,10.18
2024-04-09T07:35:01.158Z,16.85
2024-04-09T07:37:29.098Z,16.25
2024-04-09T07:39:57.044Z,12.82
2024-04-09T07:42:24.979Z,19.80
2024-04-09T07:44:52.931Z,12.00
2024-04-09T07:47:22.738Z,13.13
2024-04-09T07:49:52.387Z,11.00
2024-04-09T07:52:20.450Z,12.48
2024-04-09T07:54:48.528Z,14.60
2024-04-09T07:57:16.550Z,10.48
2024-04-09T07:59:45.382Z,12.57
2024-04-09T08:02:13.447Z,14.57
2024-04-09T08:04:41.653Z,10.23
2024-04-09T08:07:09.956Z,10.20
2024-04-09T08:09:38.480Z,12.30
2024-04-09T08:12:06.815Z,15.32
2024-04-09T08:14:34.719Z,12.02
2024-04-09T08:17:02.628Z,13.18
2024-04-09T08:19:32.860Z,11.30
2024-04-09T08:22:00.900Z,16.98
2024-04-09T08:24:28.843Z,15.25
2024-04-09T08:26:56.621Z,15.95
2024-04-09T08:29:25.224Z,17.45
2024-04-09T08:31:53.007Z,16.05
2024-04-09T08:34:21.707Z,18.92
2024-04-09T08:36:51.171Z,14.95
2024-04-09T08:39:19.375Z,16.73
2024-04-09T08:41:47.442Z,14.80
2024-04-09T08:44:16.438Z,18.15
2024-04-09T08:46:44.556Z,12.27
2024-04-09T08:49:13.767Z,16.33
2024-04-09T08:51:42.695Z,15.25
2024-04-09T08:54:12.248Z,17.05
2024-04-09T08:56:40.170Z,20.27
2024-04-09T08:59:09.394Z,14.27
2024-04-09T09:01:37.561Z,13.23
2024-04-09T09:04:09.128Z,10.02
2024-04-09T09:06:47.595Z,14.93
2024-04-09T09:09:28.868Z,14.73
2024-04-09T09:12:03.978Z,17.73
2024-04-09T09:14:32.348Z,16.52
2024-04-09T09:17:04.401Z,15.45
2024-04-09T09:19:36.258Z,13.73
2024-04-09T09:22:14.072Z,13.63
2024-04-09T09:24:42.491Z,17.35
2024-04-09T09:27:12.183Z,11.88
2024-04-09T09:29:40.053Z,12.13
2024-04-09T09:32:14.667Z,16.25
2024-04-09T09:34:44.525Z,15.18
2024-04-09T09:37:13.136Z,25.08
2024-04-09T09:39:43.008Z,16.08
2024-04-09T09:42:14.922Z,17.30
2024-04-09T09:44:46.719Z,16.13
2024-04-09T09:47:15.234Z,14.90
2024-04-09T09:49:44.098Z,17.80
2024-04-09T09:52:12.523Z,20.08
2024-04-09T09:54:40.486Z,24.98
2024-04-09T09:57:12.784Z,14.80
2024-04-09T09:59:49.162Z,18.30
2024-04-09T10:02:19.267Z,14.55
2024-04-09T10:04:47.437Z,15.50
2024-04-09T10:07:18.032Z,14.40
2024-04-09T10:09:55.644Z,18.20
2024-04-09T10:12:33.146Z,19.85
2024-04-09T10:15:08.976Z,17.15
2024-04-09T10:17:54.130Z,21.25
2024-04-09T10:20:33.199Z,19.27
2024-04-09T10:23:04.565Z,15.75
2024-04-09T10:25:42.023Z,20.58
2024-04-09T10:28:15.308Z,19.73
2024-04-09T10:30:48.387Z,16.25
2024-04-09T10:33:16.685Z,17.00
2024-04-09T10:35:45.406Z,22.10
2024-04-09T10:38:13.469Z,22.38
2024-04-09T10:40:41.350Z,21.27
2024-04-09T10:43:09.904Z,19.42
2024-04-09T10:45:47.819Z,24.73
2024-04-09T10:48:25.175Z,26.70
2024-04-09T10:50:53.691Z,18.50
2024-04-09T10:53:21.985Z,22.88
2024-04-09T10:55:50.456Z,18.50
2024-04-09T10:58:18.897Z,23.10
2024-04-09T11:00:53.970Z,22.13
2024-04-09T11:03:23.337Z,19.73
2024-04-09T11:05:55.073Z,19.25
2024-04-09T11:08:31.226Z,17.40
2024-04-09T11:11:07.356Z,17.77
2024-04-09T11:13:37.930Z,19.80
2024-04-09T11:16:05.925Z,22.95
2024-04-09T11:18:34.050Z,18.20
2024-04-09T11:21:03.052Z,22.35
2024-04-09T11:23:35.492Z,11.75
2024-04-09T11:26:03.831Z,17.08
2024-04-09T11:28:32.753Z,16.80
2024-04-09T11:31:02.060Z,17.88
2024-04-09T11:33:30.713Z,19.23
2024-04-09T11:36:10.370Z,19.17
2024-04-09T11:38:42.691Z,19.65
2024-04-09T11:41:11.157Z,15.05
2024-04-09T11:43:38.975Z,13.98
2024-04-09T11:46:06.913Z,14.20
2024-04-09T11:48:35.034Z,19.02
2024-04-09T11:51:03.026Z,14.60
2024-04-09T11:53:31.033Z,16.08
2024-04-09T11:56:00.874Z,17.90
2024-04-09T11:58:28.773Z,17.70
2024-04-09T12:00:57.825Z,13.40
2024-04-09T12:03:25.834Z,15.93
2024-04-09T12:05:53.881Z,18.65
2024-04-09T12:08:21.825Z,15.65
2024-04-09T12:10:50.175Z,15.18
2024-04-09T12:13:18.073Z,13.65
2024-04-09T12:15:46.150Z,19.58
2024-04-09T12:18:14.175Z,17.13
2024-04-09T12:20:42.056Z,13.27
2024-04-09T12:23:11.102Z,19.02
2024-04-09T12:25:39.189Z,16.52
2024-04-09T12:28:07.193Z,14.10
2024-04-09T12:30:36.250Z,21.27
2024-04-09T12:33:04.494Z,19.23
2024-04-09T12:35:32.909Z,19.45
2024-04-09T12:38:00.987Z,19.30
2024-04-09T12:40:29.082Z,20.08
2024-04-09T12:42:57.243Z,17.67
2024-04-09T12:45:25.573Z,15.70
2024-04-09T12:47:53.821Z,15.57
2024-04-09T12:50:22.568Z,23.52
2024-04-09T12:52:50.502Z,19.55
2024-04-09T12:55:18.478Z,13.13
2024-04-09T12:57:46.499Z,18.20
2024-04-09T13:00:34.372Z,21.13
2024-04-09T13:03:03.822Z,20.90
2024-04-09T13:05:32.307Z,19.23
2024-04-09T13:08:00.230Z,25.10
2024-04-09T13:10:28.940Z,24.52
2024-04-09T13:12:57.461Z,23.27
2024-04-09T13:17:56.178Z,23.15
2024-04-09T13:20:24.202Z,21.90
2024-04-09T13:22:52.026Z,22.48
2024-04-09T13:25:19.936Z,21.35
2024-04-09T13:27:47.870Z,23.05
2024-04-09T13:30:15.803Z,16.13
2024-04-09T13:32:43.729Z,24.00
2024-04-09T13:35:11.745Z,21.67
2024-04-09T13:37:42.570Z,21.92
2024-04-09T13:40:14.605Z,21.63
2024-04-09T13:42:46.849Z,20.45
2024-04-09T13:45:15.950Z,30.08
2024-04-09T13:47:47.975Z,19.27
2024-04-09T13:50:19.973Z,23.15
2024-04-09T13:52:48.850Z,23.25
2024-04-09T13:55:17.673Z,32.97
2024-04-09T13:57:45.586Z,20.67
2024-04-09T14:00:15.122Z,19.73
2024-04-09T14:02:43.901Z,23.65
2024-04-09T14:05:12.653Z,20.45
2024-04-09T14:07:40.882Z,24.23
2024-04-09T14:10:08.955Z,22.95
2024-04-09T14:12:37.155Z,22.00
2024-04-09T14:15:07.512Z,23.38
2024-04-09T14:17:39.396Z,23.58
2024-04-09T14:20:10.976Z,20.00
2024-04-09T14:22:41.624Z,26.63
2024-04-09T14:25:12.646Z,24.13
2024-04-09T14:27:40.630Z,25.85
2024-04-09T14:30:09.108Z,24.10
2024-04-09T14:32:37.392Z,22.38
2024-04-09T14:35:07.354Z,27.77
2024-04-09T14:37:35.255Z,30.65
2024-04-09T14:40:03.942Z,25.15
2024-04-09T14:42:31.802Z,24.25
2024-04-09T14:44:59.746Z,27.80
2024-04-09T14:47:27.708Z,22.52
2024-04-09T14:49:55.622Z,28.52
2024-04-09T14:52:23.688Z,23.38
2024-04-09T14:54:54.288Z,24.17
2024-04-09T14:57:23.556Z,24.48
2024-04-09T14:59:51.564Z,31.00
2024-04-09T15:02:19.789Z,29.27
2024-04-09T15:04:47.773Z,25.02
2024-04-09T15:07:15.606Z,29.55
2024-04-09T15:09:43.601Z,23.27
2024-04-09T15:12:11.641Z,20.42
2024-04-09T15:14:39.785Z,23.23
2024-04-09T15:17:08.138Z,24.88
2024-04-09T15:19:36.167Z,21.55
2024-04-09T15:22:07.183Z,20.73
2024-04-09T15:24:35.182Z,20.75
2024-04-09T15:27:04.667Z,20.35
2024-04-09T15:29:32.845Z,23.50
2024-04-09T15:32:01.063Z,22.55
2024-04-09T15:34:29.743Z,20.42
2024-04-09T15:36:57.679Z,27.73
2024-04-09T15:39:26.800Z,29.40
2024-04-09T15:41:54.613Z,27.05
2024-04-09T15:44:22.689Z,29.13
2024-04-09T15:46:51.034Z,28.73
2024-04-09T15:49:19.029Z,25.42
2024-04-09T15:51:47.134Z,24.60
2024-04-09T15:54:15.653Z,29.00
2024-04-09T15:56:43.677Z,26.45
2024-04-09T15:59:11.680Z,25.77
2024-04-09T16:01:43.457Z,24.42
2024-04-09T16:04:11.711Z,24.17
2024-04-09T16:06:40.553Z,25.70
2024-04-09T16:09:09.660Z,31.33
2024-04-09T16:11:37.779Z,22.10
2024-04-09T16:14:08.723Z,30.65
2024-04-09T16:16:37.949Z,25.20
2024-04-09T16:19:10.175Z,27.70
2024-04-09T16:21:39.711Z,21.90
2024-04-09T16:24:07.819Z,25.42
2024-04-09T16:26:35.800Z,22.90
2024-04-09T16:29:04.387Z,23.17
2024-04-09T16:31:32.278Z,24.13
2024-04-09T16:34:00.498Z,24.05
2024-04-09T16:36:28.567Z,26.58
2024-04-09T16:38:56.404Z,25.95
2024-04-09T16:41:24.319Z,30.90
2024-04-09T16:43:52.792Z,27.63
2024-04-09T16:46:20.584Z,30.65
2024-04-09T16:48:48.592Z,25.25
2024-04-09T16:51:18.838Z,28.58
2024-04-09T16:53:46.634Z,34.10
2024-04-09T16:56:14.570Z,23.73
2024-04-09T16:58:42.721Z,30.80
2024-04-09T17:01:11.075Z,31.90
2024-04-09T17:03:39.067Z,28.00
2024-04-09T17:06:07.652Z,24.58
2024-04-09T17:08:36.963Z,28.58
2024-04-09T17:11:07.838Z,20.52
2024-04-09T17:13:38.983Z,29.58
2024-04-09T17:16:08.086Z,23.48
2024-04-09T17:18:36.900Z,23.80
2024-04-09T17:21:05.338Z,23.73
2024-04-09T17:23:33.485Z,29.75
2024-04-09T17:26:05.387Z,30.90
2024-04-09T17:28:33.871Z,26.15
2024-04-09T17:31:01.826Z,22.75
2024-04-09T17:33:29.811Z,24.33
2024-04-09T17:35:58.420Z,27.58
2024-04-09T17:38:26.226Z,24.17
2024-04-09T17:40:54.162Z,26.55
2024-04-09T17:43:22.038Z,28.98
2024-04-09T17:45:56.982Z,32.50
2024-04-09T17:48:25.737Z,23.85
2024-04-09T17:50:53.952Z,30.02
2024-04-09T17:53:21.836Z,26.48
2024-04-09T17:55:49.837Z,28.27
2024-04-09T17:58:18.249Z,26.35
2024-04-09T18:00:47.749Z,26.58
2024-04-09T18:03:16.647Z,31.75
2024-04-09T18:05:44.526Z,31.63
2024-04-09T18:08:13.571Z,30.42
2024-04-09T18:10:44.976Z,28.80
2024-04-09T18:13:13.147Z,35.70
2024-04-09T18:15:40.944Z,33.63
2024-04-09T18:18:09.077Z,31.33
2024-04-09T18:20:37.188Z,22.63
2024-04-09T18:23:06.260Z,22.52
2024-04-09T18:25:34.648Z,28.20
2024-04-09T18:28:02.697Z,24.60
2024-04-09T18:30:30.539Z,27.88
2024-04-09T18:33:00.468Z,25.15
2024-04-09T18:35:32.234Z,26.30
2024-04-09T18:38:00.225Z,28.88
2024-04-09T18:40:28.213Z,25.98
2024-04-09T18:42:56.809Z,20.40
2024-04-09T18:45:24.964Z,30.13
2024-04-09T18:47:53.490Z,27.67
2024-04-09T18:50:21.704Z,32.75
2024-04-09T18:52:50.181Z,30.50
2024-04-09T18:55:18.435Z,26.33
2024-04-09T18:57:46.759Z,27.10
2024-04-09T19:00:17.236Z,32.65
2024-04-09T19:02:46.020Z,38.38
2024-04-09T19:05:14.463Z,30.50
2024-04-09T19:07:42.970Z,33.72
2024-04-09T19:10:11.543Z,30.77
2024-04-09T19:12:42.421Z,37.58
2024-04-09T19:15:10.938Z,28.83
2024-04-09T19:17:40.202Z,28.08
2024-04-09T19:20:09.747Z,35.60
2024-04-09T19:22:38.386Z,28.88
2024-04-09T19:25:08.442Z,30.17
2024-04-09T19:27:37.215Z,26.23
2024-04-09T19:30:06.519Z,31.80
2024-04-09T19:32:35.325Z,37.83
2024-04-09T19:35:07.709Z,29.52
2024-04-09T19:37:40.719Z,38.58
2024-04-09T19:40:11.118Z,43.80
2024-04-09T19:42:39.522Z,39.72
2024-04-09T19:45:08.398Z,28.42
2024-04-09T19:47:37.594Z,38.42
2024-04-09T19:50:07.065Z,49.78
2024-04-09T19:52:38.383Z,33.60
2024-04-09T19:55:09.990Z,36.95
2024-04-09T19:57:38.443Z,44.00
2024-04-09T20:00:08.791Z,33.17
2024-04-09T20:02:42.611Z,45.28
2024-04-09T20:07:39.603Z,38.13
2024-04-09T20:10:09.372Z,37.55
2024-04-09T20:12:38.262Z,46.90
2024-04-09T20:15:07.262Z,41.35
2024-04-09T20:17:36.070Z,41.75
2024-04-09T20:20:08.428Z,35.63
2024-04-09T20:22:38.876Z,40.70
2024-04-09T20:25:09.491Z,34.72
2024-04-09T20:27:37.974Z,38.45
2024-04-09T20:30:06.887Z,37.72
2024-04-09T20:32:37.409Z,33.15
2024-04-09T20:35:09.752Z,45.72
2024-04-09T20:37:38.294Z,30.50
2024-04-09T20:40:11.642Z,34.15
2024-04-09T20:42:41.985Z,31.02
2024-04-09T20:45:10.639Z,32.15
2024-04-09T20:47:40.363Z,25.40
2024-04-09T20:50:09.213Z,25.30
2024-04-09T20:52:37.791Z,26.92
2024-04-09T20:55:06.711Z,25.38
2024-04-09T20:57:34.943Z,22.67
2024-04-09T21:00:03.090Z,29.92
2024-04-09T21:02:32.032Z,27.20
2024-04-09T21:05:00.513Z,28.08
2024-04-09T21:07:28.864Z,30.15
2024-04-09T21:09:56.963Z,25.17
2024-04-09T21:12:25.206Z,31.08
2024-04-09T21:14:53.267Z,28.65
2024-04-09T21:17:21.348Z,21.23
2024-04-09T21:19:49.364Z,26.13
2024-04-09T21:22:17.203Z,28.10
2024-04-09T21:24:45.065Z,22.58
2024-04-09T21:27:13.417Z,28.42
2024-04-09T21:29:42.094Z,22.83
2024-04-09T21:32:09.958Z,32.70
2024-04-09T21:34:37.902Z,28.00
2024-04-09T21:37:06.390Z,30.25
2024-04-09T21:39:35.199Z,30.83
2024-04-09T21:42:03.245Z,25.40
2024-04-09T21:44:31.285Z,28.95
2024-04-09T21:46:59.383Z,32.47
2024-04-09T21:49:27.362Z,30.77
2024-04-09T21:51:55.192Z,31.80
2024-04-09T21:54:23.368Z,38.60
2024-04-09T21:56:51.195Z,30.58
2024-04-09T21:59:19.947Z,32.22
2024-04-09T22:01:48.141Z,29.67
2024-04-09T22:04:16.165Z,31.67
2024-04-09T22:06:44.062Z,35.80
2024-04-09T22:09:12.432Z,30.20
2024-04-09T22:11:40.471Z,27.88
2024-04-09T22:14:09.259Z,23.95
2024-04-09T22:16:37.466Z,26.45
2024-04-09T22:19:05.342Z,27.63
2024-04-09T22:21:33.318Z,41.63
2024-04-09T22:24:01.258Z,33.95
2024-04-09T22:26:30.207Z,22.88
2024-04-09T22:28:58.151Z,27.13
2024-04-09T22:31:26.412Z,28.17
2024-04-09T22:33:55.173Z,26.60
2024-04-09T22:36:23.337Z,24.77
2024-04-09T22:38:51.170Z,26.27
2024-04-09T22:41:19.448Z,26.30
2024-04-09T22:43:47.523Z,35.88
2024-04-09T22:46:15.412Z,29.73
2024-04-09T22:48:43.343Z,24.67
2024-04-09T22:51:11.924Z,21.67
2024-04-09T22:53:39.840Z,28.45
2024-04-09T22:56:07.775Z,27.05
2024-04-09T22:58:35.726Z,25.80
2024-04-09T23:01:08.551Z,28.30
2024-04-09T23:03:38.809Z,27.43
2024-04-09T23:06:12.697Z,26.58
2024-04-09T23:08:40.989Z,37.53
2024-04-09T23:11:10.954Z,27.52
2024-04-09T23:13:39.866Z,38.35
2024-04-09T23:16:11.934Z,29.20
2024-04-09T23:18:40.307Z,26.67
2024-04-09T23:21:08.526Z,50.63
2024-04-09T23:23:36.619Z,34.25
2024-04-09T23:26:04.756Z,38.47
2024-04-09T23:28:33.605Z,41.67
2024-04-09T23:31:01.434Z,38.50
2024-04-09T23:33:29.391Z,35.25
2024-04-09T23:35:57.233Z,40.95
2024-04-09T23:38:25.384Z,33.97
2024-04-09T23:40:53.535Z,29.15
2024-04-09T23:43:21.364Z,38.55
2024-04-09T23:45:49.714Z,31.98
2024-04-09T23:48:17.975Z,38.95
2024-04-09T23:50:46.045Z,33.35
2024-04-09T23:53:14.003Z,29.33
2024-04-09T23:55:41.989Z,32.80
2024-04-09T23:58:10.776Z,34.42
